createdAt,value
2023-05-20T00:00:50.519Z,4.75
2023-05-20T00:03:18.040Z,13.27
2023-05-20T00:05:45.048Z,6.43
2023-05-20T00:08:12.340Z,5.40
2023-05-20T00:10:39.538Z,5.70
2023-05-20T00:13:06.894Z,6.03
2023-05-20T00:15:37.063Z,9.18
2023-05-20T00:20:32.752Z,9.40
2023-05-20T00:22:59.627Z,6.25
2023-05-20T00:25:26.868Z,10.68
2023-05-20T00:27:53.791Z,5.20
2023-05-20T00:30:20.880Z,7.00
2023-05-20T00:32:48.221Z,6.53
2023-05-20T00:35:15.336Z,6.50
2023-05-20T00:37:43.303Z,4.85
2023-05-20T00:40:11.013Z,12.52
2023-05-20T00:42:39.662Z,8.03
2023-05-20T00:45:07.089Z,6.20
2023-05-20T00:47:36.537Z,6.57
2023-05-20T00:50:04.475Z,8.07
2023-05-20T00:52:32.765Z,7.70
2023-05-20T00:55:00.216Z,5.65
2023-05-20T00:57:27.599Z,7.03
2023-05-20T00:59:54.895Z,8.50
2023-05-20T01:02:22.778Z,8.52
2023-05-20T01:04:50.710Z,9.38
2023-05-20T01:07:18.648Z,5.82
2023-05-20T01:09:46.721Z,9.00
2023-05-20T01:12:18.257Z,4.25
2023-05-20T01:15:01.756Z,5.00
2023-05-20T01:17:33.230Z,3.63
2023-05-20T01:20:04.252Z,3.28
2023-05-20T01:22:31.500Z,4.25
2023-05-20T01:24:58.498Z,7.60
2023-05-20T01:27:26.636Z,5.50
2023-05-20T01:29:54.320Z,3.42
2023-05-20T01:32:34.939Z,3.50
2023-05-20T01:35:03.068Z,5.55
2023-05-20T01:37:31.478Z,2.78
2023-05-20T01:39:58.833Z,6.05
2023-05-20T01:42:28.087Z,3.45
2023-05-20T01:44:55.432Z,7.20
2023-05-20T01:47:22.451Z,6.00
2023-05-20T01:49:49.649Z,4.10
2023-05-20T01:52:17.305Z,5.03
2023-05-20T01:54:50.889Z,4.45
2023-05-20T01:57:22.802Z,6.05
2023-05-20T01:59:51.349Z,8.77
2023-05-20T02:02:18.453Z,3.22
2023-05-20T02:04:49.579Z,4.07
2023-05-20T02:07:18.831Z,7.97
2023-05-20T02:09:46.772Z,3.60
2023-05-20T02:12:17.129Z,3.00
2023-05-20T02:14:45.501Z,3.72
2023-05-20T02:17:14.590Z,5.70
2023-05-20T02:19:42.745Z,5.05
2023-05-20T02:22:09.749Z,4.38
2023-05-20T02:24:36.932Z,4.32
2023-05-20T02:27:04.824Z,4.43
2023-05-20T02:29:35.254Z,6.88
2023-05-20T02:32:02.380Z,3.75
2023-05-20T02:34:30.923Z,11.63
2023-05-20T02:36:57.870Z,4.57
2023-05-20T02:39:25.165Z,6.05
2023-05-20T02:41:52.146Z,3.33
2023-05-20T02:44:19.016Z,9.25
2023-05-20T02:46:45.892Z,5.88
2023-05-20T02:49:12.799Z,3.35
2023-05-20T02:51:40.913Z,4.82
2023-05-20T02:54:07.876Z,7.20
2023-05-20T02:56:34.872Z,12.43
2023-05-20T02:59:04.896Z,5.90
2023-05-20T03:01:33.753Z,5.17
2023-05-20T03:04:01.297Z,7.30
2023-05-20T03:06:30.162Z,7.45
2023-05-20T03:08:57.101Z,10.00
2023-05-20T03:11:24.669Z,8.70
2023-05-20T03:13:51.890Z,7.13
2023-05-20T03:16:18.968Z,9.45
2023-05-20T03:18:46.377Z,7.65
2023-05-20T03:21:13.876Z,10.70
2023-05-20T03:23:40.933Z,6.45
2023-05-20T03:26:08.527Z,6.30
2023-05-20T03:28:36.507Z,4.13
2023-05-20T03:31:04.469Z,6.65
2023-05-20T03:33:34.040Z,7.00
2023-05-20T03:36:01.713Z,8.13
2023-05-20T03:38:28.637Z,4.93
2023-05-20T03:40:55.692Z,4.47
2023-05-20T03:43:22.754Z,5.38
2023-05-20T03:45:49.657Z,15.05
2023-05-20T03:48:16.760Z,7.68
2023-05-20T03:50:43.692Z,6.45
2023-05-20T03:53:11.198Z,5.05
2023-05-20T03:55:41.566Z,7.75
2023-05-20T03:58:09.532Z,6.78
2023-05-20T04:00:36.422Z,5.25
2023-05-20T04:03:03.575Z,7.07
2023-05-20T04:05:30.838Z,6.95
2023-05-20T04:07:58.190Z,6.47
2023-05-20T04:10:25.487Z,6.00
2023-05-20T04:12:53.933Z,7.60
2023-05-20T04:15:23.869Z,10.10
2023-05-20T04:17:56.628Z,7.20
2023-05-20T04:20:24.458Z,8.02
2023-05-20T04:22:55.264Z,8.68
2023-05-20T04:25:22.464Z,11.70
2023-05-20T04:27:49.971Z,5.75
2023-05-20T04:30:18.576Z,7.90
2023-05-20T04:32:45.645Z,7.70
2023-05-20T04:35:13.922Z,5.85
2023-05-20T04:37:52.994Z,8.00
2023-05-20T04:40:20.992Z,17.23
2023-05-20T04:42:47.915Z,12.40
2023-05-20T04:45:15.670Z,8.60
2023-05-20T04:47:44.339Z,8.00
2023-05-20T04:50:12.229Z,9.70
2023-05-20T04:52:43.130Z,10.23
2023-05-20T04:55:11.848Z,8.63
2023-05-20T04:57:42.048Z,7.70
2023-05-20T05:00:10.860Z,7.97
2023-05-20T05:02:38.295Z,12.93
2023-05-20T05:05:05.769Z,8.65
2023-05-20T05:07:32.836Z,12.55
2023-05-20T05:09:59.761Z,8.00
2023-05-20T05:12:29.379Z,14.00
2023-05-20T05:14:57.628Z,12.68
2023-05-20T05:17:25.212Z,7.15
2023-05-20T05:19:52.194Z,9.38
2023-05-20T05:22:19.167Z,9.13
2023-05-20T05:24:46.087Z,10.88
2023-05-20T05:27:13.048Z,7.93
2023-05-20T05:29:40.073Z,10.13
2023-05-20T05:32:07.341Z,7.90
2023-05-20T05:34:34.316Z,11.20
2023-05-20T05:37:01.279Z,11.43
2023-05-20T05:39:28.235Z,8.90
2023-05-20T05:41:56.740Z,14.52
2023-05-20T05:44:24.808Z,8.83
2023-05-20T05:46:51.779Z,10.13
2023-05-20T05:49:19.017Z,9.23
2023-05-20T05:51:46.008Z,11.27
2023-05-20T05:54:13.409Z,8.25
2023-05-20T05:56:40.755Z,8.73
2023-05-20T05:59:08.473Z,8.65
2023-05-20T06:01:37.477Z,11.60
2023-05-20T06:04:05.152Z,13.33
2023-05-20T06:06:32.813Z,13.65
2023-05-20T06:08:59.836Z,10.43
2023-05-20T06:11:27.191Z,11.25
2023-05-20T06:13:54.176Z,14.13
2023-05-20T06:16:21.783Z,12.88
2023-05-20T06:18:51.547Z,12.55
2023-05-20T06:21:18.677Z,9.57
2023-05-20T06:23:45.718Z,10.13
2023-05-20T06:26:13.595Z,11.77
2023-05-20T06:28:40.619Z,9.93
2023-05-20T06:31:08.937Z,10.43
2023-05-20T06:33:36.709Z,9.40
2023-05-20T06:36:08.479Z,13.65
2023-05-20T06:38:35.427Z,10.13
2023-05-20T06:41:02.666Z,12.35
2023-05-20T06:43:30.626Z,9.40
2023-05-20T06:46:23.682Z,8.93
2023-05-20T06:48:55.394Z,10.15
2023-05-20T06:51:22.559Z,11.50
2023-05-20T06:53:50.802Z,10.23
2023-05-20T06:56:17.700Z,9.38
2023-05-20T06:58:45.075Z,9.48
2023-05-20T07:01:12.166Z,9.73
2023-05-20T07:03:40.469Z,11.25
2023-05-20T07:06:07.833Z,9.65
2023-05-20T07:08:35.138Z,10.07
2023-05-20T07:11:02.721Z,11.88
2023-05-20T07:13:30.689Z,13.27
2023-05-20T07:15:58.733Z,11.93
2023-05-20T07:18:26.717Z,11.18
2023-05-20T07:20:57.121Z,11.45
2023-05-20T07:23:37.105Z,9.75
2023-05-20T07:26:04.177Z,10.77
2023-05-20T07:28:31.466Z,15.95
2023-05-20T07:31:00.329Z,11.75
2023-05-20T07:33:29.939Z,11.20
2023-05-20T07:35:57.184Z,11.02
2023-05-20T07:38:24.624Z,9.90
2023-05-20T07:40:57.236Z,10.15
2023-05-20T07:43:24.627Z,12.18
2023-05-20T07:45:51.723Z,9.10
2023-05-20T07:48:18.659Z,7.43
2023-05-20T07:50:46.060Z,8.75
2023-05-20T07:53:13.447Z,9.10
2023-05-20T07:55:40.852Z,11.82
2023-05-20T07:58:07.784Z,13.05
2023-05-20T08:00:36.032Z,8.43
2023-05-20T08:03:08.154Z,9.77
2023-05-20T08:06:14.258Z,10.57
2023-05-20T08:08:43.162Z,8.85
2023-05-20T08:11:18.032Z,7.18
2023-05-20T08:13:45.144Z,12.25
2023-05-20T08:16:12.172Z,12.13
2023-05-20T08:18:39.480Z,7.93
2023-05-20T08:21:10.014Z,9.15
2023-05-20T08:23:39.649Z,10.10
2023-05-20T08:26:07.752Z,10.18
2023-05-20T08:28:38.353Z,13.55
2023-05-20T08:31:05.435Z,8.52
2023-05-20T08:33:33.405Z,13.07
2023-05-20T08:36:00.846Z,8.77
2023-05-20T08:38:29.382Z,10.43
2023-05-20T08:40:57.823Z,10.77
2023-05-20T08:43:26.240Z,8.90
2023-05-20T08:45:53.524Z,7.50
2023-05-20T08:48:25.757Z,10.77
2023-05-20T08:50:53.675Z,7.50
2023-05-20T08:53:23.829Z,9.13
2023-05-20T08:55:55.553Z,20.02
2023-05-20T08:58:23.537Z,16.13
2023-05-20T09:00:51.291Z,8.20
2023-05-20T09:03:18.575Z,12.98
2023-05-20T09:05:45.554Z,11.52
2023-05-20T09:08:12.787Z,13.18
2023-05-20T09:10:41.923Z,8.75
2023-05-20T09:13:10.043Z,8.43
2023-05-20T09:15:37.660Z,11.05
2023-05-20T09:18:06.369Z,10.23
2023-05-20T09:20:37.159Z,9.13
2023-05-20T09:23:09.136Z,10.13
2023-05-20T09:25:36.893Z,11.60
2023-05-20T09:28:10.262Z,8.82
2023-05-20T09:30:37.254Z,12.25
2023-05-20T09:33:05.826Z,8.27
2023-05-20T09:35:37.516Z,11.32
2023-05-20T09:38:07.542Z,10.82
2023-05-20T09:40:37.710Z,11.02
2023-05-20T09:43:08.756Z,9.98
2023-05-20T09:45:36.456Z,10.55
2023-05-20T09:48:05.754Z,11.77
2023-05-20T09:50:33.240Z,14.73
2023-05-20T09:53:03.600Z,15.93
2023-05-20T09:55:30.959Z,11.75
2023-05-20T09:58:02.079Z,11.57
2023-05-20T10:00:29.076Z,10.35
2023-05-20T10:02:57.040Z,11.52
2023-05-20T10:05:38.954Z,20.15
2023-05-20T10:08:11.901Z,10.70
2023-05-20T10:10:39.223Z,8.60
2023-05-20T10:13:19.693Z,8.93
2023-05-20T10:15:55.677Z,20.50
2023-05-20T10:18:34.422Z,8.32
2023-05-20T10:21:01.424Z,10.30
2023-05-20T10:23:30.027Z,11.20
2023-05-20T10:25:58.719Z,12.82
2023-05-20T10:28:33.778Z,8.55
2023-05-20T10:31:00.973Z,14.30
2023-05-20T10:33:28.516Z,9.65
2023-05-20T10:35:59.248Z,12.93
2023-05-20T10:38:26.556Z,11.40
2023-05-20T10:40:53.789Z,13.02
2023-05-20T10:43:28.747Z,11.25
2023-05-20T10:45:57.698Z,12.48
2023-05-20T10:48:26.017Z,14.68
2023-05-20T10:51:03.951Z,10.98
2023-05-20T10:53:39.574Z,10.98
2023-05-20T10:56:06.872Z,11.82
2023-05-20T10:58:39.115Z,10.18
2023-05-20T11:01:06.549Z,9.77
2023-05-20T11:03:36.160Z,10.10
2023-05-20T11:06:11.909Z,9.00
2023-05-20T11:08:39.188Z,13.30
2023-05-20T11:11:06.972Z,10.20
2023-05-20T11:13:34.153Z,11.77
2023-05-20T11:16:01.887Z,9.65
2023-05-20T11:18:32.214Z,11.20
2023-05-20T11:23:28.719Z,14.68
2023-05-20T11:25:57.319Z,9.38
2023-05-20T11:28:24.498Z,11.60
2023-05-20T11:30:52.773Z,10.25
2023-05-20T11:33:20.170Z,9.30
2023-05-20T11:35:49.682Z,19.98
2023-05-20T11:38:17.507Z,10.10
2023-05-20T11:40:55.256Z,11.75
2023-05-20T11:43:24.173Z,15.10
2023-05-20T11:46:01.601Z,11.07
2023-05-20T11:48:28.832Z,13.85
2023-05-20T11:50:56.934Z,10.45
2023-05-20T11:53:25.313Z,8.43
2023-05-20T11:56:00.408Z,8.40
2023-05-20T11:58:32.040Z,10.45
2023-05-20T12:01:09.650Z,8.10
2023-05-20T12:03:46.695Z,10.20
2023-05-20T12:06:13.825Z,11.05
2023-05-20T12:08:40.876Z,7.70
2023-05-20T12:11:07.810Z,9.13
2023-05-20T12:13:35.649Z,8.85
2023-05-20T12:16:02.851Z,12.57
2023-05-20T12:18:29.797Z,8.27
2023-05-20T12:20:56.740Z,9.55
2023-05-20T12:23:23.740Z,9.65
2023-05-20T12:25:50.911Z,9.88
2023-05-20T12:28:18.103Z,10.68
2023-05-20T12:30:44.985Z,11.80
2023-05-20T12:33:11.882Z,9.50
2023-05-20T12:35:39.807Z,8.52
2023-05-20T12:38:07.320Z,12.18
2023-05-20T12:40:35.663Z,10.57
2023-05-20T12:43:04.464Z,9.45
2023-05-20T12:45:31.665Z,9.60
2023-05-20T12:47:59.074Z,10.05
2023-05-20T12:50:27.333Z,8.27
2023-05-20T12:52:54.290Z,10.57
2023-05-20T12:55:21.257Z,10.77
2023-05-20T12:57:48.421Z,9.25
2023-05-20T13:00:15.962Z,31.48
2023-05-20T13:02:43.576Z,13.18
2023-05-20T13:05:11.285Z,11.90
2023-05-20T13:07:38.420Z,12.40
2023-05-20T13:10:07.139Z,13.93
2023-05-20T13:12:37.652Z,14.82
2023-05-20T13:15:05.313Z,13.80
2023-05-20T13:17:32.500Z,14.68
2023-05-20T13:19:59.501Z,16.02
2023-05-20T13:22:26.397Z,15.18
2023-05-20T13:24:53.276Z,15.05
2023-05-20T13:27:20.134Z,15.88
2023-05-20T13:29:47.373Z,12.85
2023-05-20T13:32:14.290Z,16.23
2023-05-20T13:34:41.312Z,13.43
2023-05-20T13:37:08.289Z,16.90
2023-05-20T13:39:35.581Z,13.82
2023-05-20T13:42:02.754Z,12.05
2023-05-20T13:44:30.751Z,12.27
2023-05-20T13:46:59.457Z,11.57
2023-05-20T13:49:26.908Z,14.82
2023-05-20T13:51:53.775Z,14.30
2023-05-20T13:54:21.819Z,13.80
2023-05-20T13:56:49.108Z,12.27
2023-05-20T13:59:16.360Z,15.88
2023-05-20T14:01:45.255Z,13.70
2023-05-20T14:04:12.913Z,17.52
2023-05-20T14:06:40.490Z,14.70
2023-05-20T14:09:09.188Z,30.25
2023-05-20T14:11:36.306Z,15.77
2023-05-20T14:14:03.278Z,13.38
2023-05-20T14:16:31.875Z,18.40
2023-05-20T14:18:59.002Z,14.88
2023-05-20T14:21:26.023Z,15.45
2023-05-20T14:23:53.018Z,18.90
2023-05-20T14:26:20.080Z,14.98
2023-05-20T14:28:47.098Z,15.02
2023-05-20T14:31:14.073Z,17.38
2023-05-20T14:33:41.046Z,16.02
2023-05-20T14:36:08.034Z,18.02
2023-05-20T14:38:34.893Z,15.93
2023-05-20T14:41:01.840Z,21.10
2023-05-20T14:43:28.803Z,23.83
2023-05-20T14:45:55.808Z,14.52
2023-05-20T14:48:22.739Z,20.10
2023-05-20T14:50:50.028Z,17.70
2023-05-20T14:53:17.652Z,20.23
2023-05-20T14:55:44.723Z,16.33
2023-05-20T14:58:12.055Z,15.35
2023-05-20T15:00:39.479Z,17.15
2023-05-20T15:03:06.943Z,19.00
2023-05-20T15:05:33.968Z,16.23
2023-05-20T15:08:01.115Z,20.38
2023-05-20T15:10:28.012Z,19.55
2023-05-20T15:12:55.279Z,20.52
2023-05-20T15:15:22.501Z,18.92
2023-05-20T15:17:49.469Z,20.83
2023-05-20T15:20:16.453Z,21.05
2023-05-20T15:22:47.970Z,16.50
2023-05-20T15:25:15.187Z,19.60
2023-05-20T15:27:42.315Z,19.73
2023-05-20T15:30:10.082Z,20.45
2023-05-20T15:32:37.050Z,18.08
2023-05-20T15:35:04.415Z,20.02
2023-05-20T15:37:31.397Z,15.65
2023-05-20T15:39:58.259Z,18.25
2023-05-20T15:42:25.569Z,18.10
2023-05-20T15:44:52.450Z,18.73
2023-05-20T15:47:19.821Z,18.20
2023-05-20T15:49:46.861Z,19.92
2023-05-20T15:52:14.144Z,17.75
2023-05-20T15:54:41.263Z,20.13
2023-05-20T15:57:08.367Z,14.93
2023-05-20T15:59:35.587Z,23.25
2023-05-20T16:02:02.558Z,18.83
2023-05-20T16:04:29.698Z,24.77
2023-05-20T16:06:56.677Z,22.25
2023-05-20T16:09:23.545Z,20.98
2023-05-20T16:11:50.468Z,22.23
2023-05-20T16:14:17.467Z,21.88
2023-05-20T16:16:44.600Z,19.27
2023-05-20T16:19:11.641Z,19.20
2023-05-20T16:21:38.657Z,22.17
2023-05-20T16:24:05.692Z,17.63
2023-05-20T16:26:32.621Z,28.13
2023-05-20T16:28:59.505Z,20.42
2023-05-20T16:31:26.797Z,15.55
2023-05-20T16:33:53.768Z,17.83
2023-05-20T16:36:21.640Z,23.77
2023-05-20T16:42:08.913Z,18.20
2023-05-20T16:44:38.881Z,17.40
2023-05-20T16:47:06.556Z,18.08
2023-05-20T16:49:33.844Z,17.40
2023-05-20T16:52:01.144Z,21.17
2023-05-20T16:54:28.156Z,16.85
2023-05-20T16:56:55.061Z,19.08
2023-05-20T16:59:24.738Z,17.13
2023-05-20T17:01:51.639Z,23.45
2023-05-20T17:04:18.634Z,20.52
2023-05-20T17:06:45.512Z,15.60
2023-05-20T17:09:12.437Z,24.77
2023-05-20T17:11:39.524Z,21.00
2023-05-20T17:14:06.450Z,15.60
2023-05-20T17:16:33.866Z,14.32
2023-05-20T17:19:00.879Z,20.15
2023-05-20T17:21:27.821Z,18.45
2023-05-20T17:23:54.699Z,17.15
2023-05-20T17:26:22.531Z,16.60
2023-05-20T17:28:49.553Z,14.70
2023-05-20T17:31:16.647Z,18.40
2023-05-20T17:33:43.714Z,21.17
2023-05-20T17:36:10.646Z,16.83
2023-05-20T17:38:37.545Z,22.10
2023-05-20T17:41:04.530Z,17.13
2023-05-20T17:43:31.529Z,16.85
2023-05-20T17:45:58.735Z,15.20
2023-05-20T17:48:25.735Z,17.35
2023-05-20T17:50:52.738Z,22.75
2023-05-20T17:53:21.961Z,18.02
2023-05-20T17:55:49.418Z,16.83
2023-05-20T17:58:16.961Z,19.33
2023-05-20T18:00:44.275Z,15.57
2023-05-20T18:03:11.601Z,14.95
2023-05-20T18:05:38.754Z,16.85
2023-05-20T18:08:06.003Z,15.23
2023-05-20T18:10:33.016Z,18.88
2023-05-20T18:13:00.120Z,12.20
2023-05-20T18:15:27.337Z,15.38
2023-05-20T18:17:55.285Z,16.85
2023-05-20T18:20:22.612Z,17.52
2023-05-20T18:22:52.396Z,11.57
2023-05-20T18:25:19.631Z,15.38
2023-05-20T18:27:46.823Z,16.48
2023-05-20T18:30:13.935Z,13.40
2023-05-20T18:32:41.361Z,13.68
2023-05-20T18:35:09.243Z,13.32
2023-05-20T18:37:36.677Z,14.40
2023-05-20T18:40:06.489Z,12.80
2023-05-20T18:42:33.659Z,12.38
2023-05-20T18:45:01.226Z,14.10
2023-05-20T18:47:28.755Z,15.27
2023-05-20T18:49:55.967Z,14.45
2023-05-20T18:52:23.252Z,14.38
2023-05-20T18:54:50.476Z,12.02
2023-05-20T18:57:17.551Z,11.60
2023-05-20T18:59:44.732Z,12.63
2023-05-20T19:02:11.848Z,13.30
2023-05-20T19:04:38.932Z,15.18
2023-05-20T19:07:06.388Z,17.05
2023-05-20T19:09:34.081Z,10.32
2023-05-20T19:12:01.186Z,16.50
2023-05-20T19:14:28.252Z,15.90
2023-05-20T19:16:55.685Z,12.52
2023-05-20T19:19:24.028Z,18.90
2023-05-20T19:21:52.723Z,8.43
2023-05-20T19:24:20.174Z,16.38
2023-05-20T19:26:48.324Z,15.18
2023-05-20T19:29:15.520Z,14.73
2023-05-20T19:31:43.225Z,12.50
2023-05-20T19:34:10.863Z,18.48
2023-05-20T19:36:38.403Z,13.65
2023-05-20T19:39:05.797Z,14.65
2023-05-20T19:41:32.730Z,14.88
2023-05-20T19:44:00.518Z,13.52
2023-05-20T19:46:27.739Z,14.43
2023-05-20T19:48:54.800Z,14.23
2023-05-20T19:51:22.350Z,14.27
2023-05-20T19:53:49.786Z,13.20
2023-05-20T19:56:19.596Z,12.80
2023-05-20T19:58:47.053Z,13.90
2023-05-20T20:01:14.909Z,17.73
2023-05-20T20:03:42.665Z,13.32
2023-05-20T20:06:10.447Z,14.13
2023-05-20T20:08:39.434Z,13.25
2023-05-20T20:11:07.393Z,12.23
2023-05-20T20:13:34.569Z,12.27
2023-05-20T20:16:01.608Z,12.77
2023-05-20T20:18:28.620Z,18.20
2023-05-20T20:20:55.494Z,15.73
2023-05-20T20:23:22.423Z,17.05
2023-05-20T20:25:50.592Z,12.57
2023-05-20T20:28:17.488Z,12.25
2023-05-20T20:30:44.451Z,11.43
2023-05-20T20:33:11.553Z,18.55
2023-05-20T20:35:38.678Z,16.70
2023-05-20T20:38:09.644Z,16.70
2023-05-20T20:40:44.807Z,15.73
2023-05-20T20:43:20.534Z,15.13
2023-05-20T20:45:50.981Z,15.98
2023-05-20T20:48:18.938Z,11.15
2023-05-20T20:50:47.881Z,12.65
2023-05-20T20:53:18.016Z,16.35
2023-05-20T20:55:48.409Z,12.60
2023-05-20T20:58:15.760Z,13.52
2023-05-20T21:00:45.035Z,13.95
2023-05-20T21:03:13.441Z,13.95
2023-05-20T21:05:40.520Z,15.30
2023-05-20T21:08:08.553Z,14.30
2023-05-20T21:10:37.176Z,15.45
2023-05-20T21:13:04.455Z,19.55
2023-05-20T21:15:31.372Z,18.02
2023-05-20T21:17:58.498Z,15.63
2023-05-20T21:20:25.472Z,16.50
2023-05-20T21:22:52.366Z,13.95
2023-05-20T21:25:19.258Z,14.88
2023-05-20T21:27:46.340Z,20.67
2023-05-20T21:30:13.458Z,22.60
2023-05-20T21:32:40.358Z,11.77
2023-05-20T21:35:08.035Z,16.50
2023-05-20T21:37:34.944Z,13.45
2023-05-20T21:40:02.006Z,13.63
2023-05-20T21:42:29.048Z,16.15
2023-05-20T21:44:55.973Z,16.42
2023-05-20T21:47:22.910Z,15.60
2023-05-20T21:49:49.849Z,14.48
2023-05-20T21:52:16.732Z,12.73
2023-05-20T21:54:43.689Z,14.15
2023-05-20T21:57:10.541Z,16.90
2023-05-20T21:59:37.450Z,16.17
2023-05-20T22:02:04.495Z,16.80
2023-05-20T22:04:33.465Z,13.88
2023-05-20T22:07:01.471Z,18.63
2023-05-20T22:09:28.429Z,14.80
2023-05-20T22:11:56.209Z,14.02
2023-05-20T22:14:23.556Z,15.68
2023-05-20T22:16:50.569Z,11.93
2023-05-20T22:19:18.066Z,11.63
2023-05-20T22:21:50.583Z,19.20
2023-05-20T22:24:18.304Z,9.98
2023-05-20T22:26:45.352Z,14.20
2023-05-20T22:29:12.362Z,15.73
2023-05-20T22:31:39.293Z,19.02
2023-05-20T22:34:06.945Z,15.55
2023-05-20T22:36:34.317Z,16.10
2023-05-20T22:39:02.385Z,15.90
2023-05-20T22:41:29.393Z,13.95
2023-05-20T22:43:56.878Z,17.35
2023-05-20T22:46:24.651Z,15.85
2023-05-20T22:48:55.564Z,16.30
2023-05-20T22:51:24.503Z,15.90
2023-05-20T22:53:51.514Z,13.15
2023-05-20T22:56:18.896Z,13.57
2023-05-20T22:58:46.005Z,14.60
2023-05-20T23:01:13.371Z,11.95
2023-05-20T23:03:40.542Z,14.02
2023-05-20T23:06:07.668Z,15.95
2023-05-20T23:08:34.535Z,18.98
2023-05-20T23:11:01.425Z,14.95
2023-05-20T23:13:28.255Z,12.43
2023-05-20T23:15:55.590Z,12.13
2023-05-20T23:18:22.516Z,13.27
2023-05-20T23:20:50.354Z,18.38
2023-05-20T23:23:19.267Z,14.77
2023-05-20T23:25:52.189Z,13.32
2023-05-20T23:28:19.071Z,13.52
2023-05-20T23:30:46.146Z,13.48
2023-05-20T23:33:14.989Z,18.20
2023-05-20T23:35:44.110Z,16.35
2023-05-20T23:38:10.963Z,18.50
2023-05-20T23:40:37.902Z,14.18
2023-05-20T23:43:04.749Z,13.07
2023-05-20T23:45:31.595Z,17.85
2023-05-20T23:48:01.150Z,12.80
2023-05-20T23:50:28.036Z,17.70
2023-05-20T23:52:54.977Z,13.30
2023-05-20T23:55:22.384Z,16.50
2023-05-20T23:57:49.893Z,15.38
